Terminal Aerodrome Forecast
Issued by NWS

Home | Current Version | Previous Version | Text Only | Print | Product List | Glossary On
Versions: 1 2 3 4 5 6 7 8 9 10 11 12 13 14 15
562
FTUS42 TJSJ 260544
TAFIST
TAF
TIST 260544Z 2606/2706 09006KT P6SM -SHRA FEW022 SCT060
     FM261400 13012KT P6SM VCSH SCT025 SCT040
     FM262200 09006KT P6SM VCSH FEW025 SCT035=

USA.gov is the U.S. government's official web portal to all federal, state and local government web resources and services.